sensor_id;sensor_type;location;lat;lon;timestamp;P1;durP1;ratioP1;P2;durP2;ratioP2
21175;SDS011;10746;50.178;8.186;2022-11-15T00:01:07;9.13;;;6.53;;
21175;SDS011;10746;50.178;8.186;2022-11-15T00:03:34;8.53;;;6.37;;
21175;SDS011;10746;50.178;8.186;2022-11-15T00:06:02;8.73;;;6.10;;
21175;SDS011;10746;50.178;8.186;2022-11-15T00:08:30;9.40;;;6.80;;
21175;SDS011;10746;50.178;8.186;2022-11-15T00:10:57;11.48;;;6.97;;
21175;SDS011;10746;50.178;8.186;2022-11-15T00:13:25;9.93;;;6.40;;
21175;SDS011;10746;50.178;8.186;2022-11-15T00:15:56;9.10;;;6.57;;
21175;SDS011;10746;50.178;8.186;2022-11-15T00:18:23;7.87;;;5.87;;
21175;SDS011;10746;50.178;8.186;2022-11-15T00:20:50;9.27;;;5.97;;
21175;SDS011;10746;50.178;8.186;2022-11-15T00:23:16;8.77;;;6.40;;
21175;SDS011;10746;50.178;8.186;2022-11-15T00:25:43;10.35;;;6.40;;
21175;SDS011;10746;50.178;8.186;2022-11-15T00:28:10;9.90;;;6.13;;
21175;SDS011;10746;50.178;8.186;2022-11-15T00:30:37;9.13;;;6.63;;
21175;SDS011;10746;50.178;8.186;2022-11-15T00:33:05;10.03;;;6.73;;
21175;SDS011;10746;50.178;8.186;2022-11-15T00:35:32;9.67;;;6.73;;
21175;SDS011;10746;50.178;8.186;2022-11-15T00:38:00;8.50;;;6.00;;
21175;SDS011;10746;50.178;8.186;2022-11-15T00:40:27;11.03;;;6.53;;
21175;SDS011;10746;50.178;8.186;2022-11-15T00:42:54;8.27;;;5.90;;
21175;SDS011;10746;50.178;8.186;2022-11-15T00:45:21;8.23;;;6.33;;
21175;SDS011;10746;50.178;8.186;2022-11-15T00:47:47;9.17;;;5.90;;
21175;SDS011;10746;50.178;8.186;2022-11-15T00:50:16;8.10;;;5.30;;
21175;SDS011;10746;50.178;8.186;2022-11-15T00:52:43;7.53;;;6.00;;
21175;SDS011;10746;50.178;8.186;2022-11-15T00:55:12;7.30;;;5.37;;
21175;SDS011;10746;50.178;8.186;2022-11-15T00:57:40;7.77;;;5.83;;
21175;SDS011;10746;50.178;8.186;2022-11-15T01:00:07;7.87;;;5.93;;
21175;SDS011;10746;50.178;8.186;2022-11-15T01:02:35;7.80;;;5.63;;
21175;SDS011;10746;50.178;8.186;2022-11-15T01:05:02;9.37;;;5.60;;
21175;SDS011;10746;50.178;8.186;2022-11-15T01:07:30;12.37;;;4.93;;
21175;SDS011;10746;50.178;8.186;2022-11-15T01:09:57;6.83;;;4.77;;
21175;SDS011;10746;50.178;8.186;2022-11-15T01:12:24;7.57;;;5.40;;
21175;SDS011;10746;50.178;8.186;2022-11-15T01:14:51;6.53;;;4.67;;
21175;SDS011;10746;50.178;8.186;2022-11-15T01:17:18;7.27;;;4.90;;
21175;SDS011;10746;50.178;8.186;2022-11-15T01:19:44;5.73;;;4.80;;
21175;SDS011;10746;50.178;8.186;2022-11-15T01:22:11;5.93;;;4.77;;
21175;SDS011;10746;50.178;8.186;2022-11-15T01:24:39;5.20;;;4.40;;
21175;SDS011;10746;50.178;8.186;2022-11-15T01:27:06;6.20;;;4.50;;
21175;SDS011;10746;50.178;8.186;2022-11-15T01:29:33;5.53;;;4.70;;
21175;SDS011;10746;50.178;8.186;2022-11-15T01:32:00;7.40;;;5.10;;
21175;SDS011;10746;50.178;8.186;2022-11-15T01:34:26;9.73;;;4.53;;
21175;SDS011;10746;50.178;8.186;2022-11-15T01:36:53;5.10;;;4.60;;
21175;SDS011;10746;50.178;8.186;2022-11-15T01:39:20;6.90;;;4.90;;
21175;SDS011;10746;50.178;8.186;2022-11-15T01:41:48;6.23;;;4.80;;
21175;SDS011;10746;50.178;8.186;2022-11-15T01:47:06;8.03;;;5.40;;
21175;SDS011;10746;50.178;8.186;2022-11-15T01:49:35;8.77;;;5.20;;
21175;SDS011;10746;50.178;8.186;2022-11-15T01:52:09;6.63;;;4.97;;
21175;SDS011;10746;50.178;8.186;2022-11-15T01:54:39;8.07;;;4.87;;
21175;SDS011;10746;50.178;8.186;2022-11-15T01:57:08;9.50;;;5.10;;
21175;SDS011;10746;50.178;8.186;2022-11-15T01:59:37;7.70;;;5.20;;
21175;SDS011;10746;50.178;8.186;2022-11-15T02:02:06;8.97;;;4.93;;
21175;SDS011;10746;50.178;8.186;2022-11-15T02:04:34;6.60;;;4.90;;
21175;SDS011;10746;50.178;8.186;2022-11-15T02:07:05;6.80;;;4.80;;
21175;SDS011;10746;50.178;8.186;2022-11-15T02:09:35;11.53;;;5.07;;
21175;SDS011;10746;50.178;8.186;2022-11-15T02:12:03;8.67;;;5.07;;
21175;SDS011;10746;50.178;8.186;2022-11-15T02:14:32;6.35;;;4.85;;
21175;SDS011;10746;50.178;8.186;2022-11-15T02:17:02;7.40;;;4.90;;
21175;SDS011;10746;50.178;8.186;2022-11-15T02:19:41;7.80;;;4.57;;
21175;SDS011;10746;50.178;8.186;2022-11-15T02:22:27;6.37;;;4.67;;
21175;SDS011;10746;50.178;8.186;2022-11-15T02:25:05;7.43;;;4.50;;
21175;SDS011;10746;50.178;8.186;2022-11-15T02:27:59;5.88;;;4.97;;
21175;SDS011;10746;50.178;8.186;2022-11-15T02:30:49;7.40;;;4.90;;
21175;SDS011;10746;50.178;8.186;2022-11-15T02:33:25;5.80;;;4.53;;
21175;SDS011;10746;50.178;8.186;2022-11-15T02:36:00;8.57;;;5.17;;
21175;SDS011;10746;50.178;8.186;2022-11-15T02:38:31;7.10;;;4.80;;
21175;SDS011;10746;50.178;8.186;2022-11-15T02:41:02;5.80;;;4.53;;
21175;SDS011;10746;50.178;8.186;2022-11-15T02:43:45;6.38;;;4.20;;
21175;SDS011;10746;50.178;8.186;2022-11-15T02:46:25;8.40;;;4.50;;
21175;SDS011;10746;50.178;8.186;2022-11-15T02:49:10;5.80;;;4.10;;
21175;SDS011;10746;50.178;8.186;2022-11-15T02:51:38;5.47;;;4.43;;
21175;SDS011;10746;50.178;8.186;2022-11-15T02:54:05;6.43;;;4.60;;
21175;SDS011;10746;50.178;8.186;2022-11-15T02:56:32;8.33;;;4.47;;
21175;SDS011;10746;50.178;8.186;2022-11-15T02:59:02;6.13;;;4.50;;
21175;SDS011;10746;50.178;8.186;2022-11-15T03:01:44;5.87;;;4.63;;
21175;SDS011;10746;50.178;8.186;2022-11-15T03:04:23;6.27;;;4.13;;
21175;SDS011;10746;50.178;8.186;2022-11-15T03:06:57;6.50;;;4.30;;
21175;SDS011;10746;50.178;8.186;2022-11-15T03:09:33;5.50;;;4.10;;
21175;SDS011;10746;50.178;8.186;2022-11-15T03:12:04;5.20;;;4.40;;
21175;SDS011;10746;50.178;8.186;2022-11-15T03:14:37;4.80;;;4.23;;
21175;SDS011;10746;50.178;8.186;2022-11-15T03:17:15;5.88;;;4.40;;
21175;SDS011;10746;50.178;8.186;2022-11-15T03:19:45;6.07;;;4.30;;
21175;SDS011;10746;50.178;8.186;2022-11-15T03:22:14;5.67;;;4.90;;
21175;SDS011;10746;50.178;8.186;2022-11-15T03:24:43;8.67;;;5.07;;
21175;SDS011;10746;50.178;8.186;2022-11-15T03:27:12;7.63;;;4.80;;
21175;SDS011;10746;50.178;8.186;2022-11-15T03:29:46;5.87;;;4.27;;
21175;SDS011;10746;50.178;8.186;2022-11-15T03:32:18;7.17;;;4.30;;
21175;SDS011;10746;50.178;8.186;2022-11-15T03:34:49;5.40;;;4.30;;
21175;SDS011;10746;50.178;8.186;2022-11-15T03:37:20;7.05;;;4.53;;
21175;SDS011;10746;50.178;8.186;2022-11-15T03:39:50;6.03;;;4.13;;
21175;SDS011;10746;50.178;8.186;2022-11-15T03:42:19;6.28;;;4.95;;
21175;SDS011;10746;50.178;8.186;2022-11-15T03:44:51;6.73;;;4.60;;
21175;SDS011;10746;50.178;8.186;2022-11-15T03:47:27;6.17;;;4.43;;
21175;SDS011;10746;50.178;8.186;2022-11-15T03:49:59;4.93;;;4.40;;
21175;SDS011;10746;50.178;8.186;2022-11-15T03:52:31;6.00;;;4.80;;
21175;SDS011;10746;50.178;8.186;2022-11-15T03:54:59;6.30;;;4.90;;
21175;SDS011;10746;50.178;8.186;2022-11-15T03:57:27;7.45;;;5.43;;
21175;SDS011;10746;50.178;8.186;2022-11-15T03:59:54;7.33;;;5.57;;
21175;SDS011;10746;50.178;8.186;2022-11-15T04:02:21;8.17;;;5.83;;
21175;SDS011;10746;50.178;8.186;2022-11-15T04:04:49;9.03;;;5.20;;
21175;SDS011;10746;50.178;8.186;2022-11-15T04:07:16;10.07;;;5.43;;
21175;SDS011;10746;50.178;8.186;2022-11-15T04:09:42;7.93;;;5.30;;
21175;SDS011;10746;50.178;8.186;2022-11-15T04:12:26;9.83;;;5.67;;
21175;SDS011;10746;50.178;8.186;2022-11-15T04:15:09;9.37;;;5.50;;
21175;SDS011;10746;50.178;8.186;2022-11-15T04:17:39;7.07;;;5.23;;
21175;SDS011;10746;50.178;8.186;2022-11-15T04:20:10;7.07;;;4.97;;
21175;SDS011;10746;50.178;8.186;2022-11-15T04:22:58;7.50;;;5.50;;
21175;SDS011;10746;50.178;8.186;2022-11-15T04:25:43;6.67;;;5.40;;
21175;SDS011;10746;50.178;8.186;2022-11-15T04:28:11;7.00;;;5.30;;
21175;SDS011;10746;50.178;8.186;2022-11-15T04:30:38;7.27;;;5.23;;
21175;SDS011;10746;50.178;8.186;2022-11-15T04:33:05;7.50;;;5.87;;
21175;SDS011;10746;50.178;8.186;2022-11-15T04:35:33;7.80;;;5.87;;
21175;SDS011;10746;50.178;8.186;2022-11-15T04:38:00;8.37;;;6.27;;
21175;SDS011;10746;50.178;8.186;2022-11-15T04:40:28;8.40;;;6.07;;
21175;SDS011;10746;50.178;8.186;2022-11-15T04:42:54;7.50;;;6.10;;
21175;SDS011;10746;50.178;8.186;2022-11-15T04:45:21;7.93;;;5.50;;
21175;SDS011;10746;50.178;8.186;2022-11-15T04:47:48;9.13;;;6.43;;
21175;SDS011;10746;50.178;8.186;2022-11-15T04:50:15;6.00;;;5.40;;
21175;SDS011;10746;50.178;8.186;2022-11-15T04:52:50;8.23;;;5.87;;
21175;SDS011;10746;50.178;8.186;2022-11-15T04:55:18;6.67;;;5.47;;
21175;SDS011;10746;50.178;8.186;2022-11-15T04:57:45;9.90;;;5.97;;
21175;SDS011;10746;50.178;8.186;2022-11-15T05:00:13;7.07;;;5.33;;
21175;SDS011;10746;50.178;8.186;2022-11-15T05:02:42;8.03;;;5.53;;
21175;SDS011;10746;50.178;8.186;2022-11-15T05:05:26;8.20;;;5.20;;
21175;SDS011;10746;50.178;8.186;2022-11-15T05:07:54;6.40;;;5.27;;
21175;SDS011;10746;50.178;8.186;2022-11-15T05:10:21;8.47;;;6.00;;
21175;SDS011;10746;50.178;8.186;2022-11-15T05:12:48;7.00;;;5.37;;
21175;SDS011;10746;50.178;8.186;2022-11-15T05:15:15;9.67;;;5.53;;
21175;SDS011;10746;50.178;8.186;2022-11-15T05:17:41;5.80;;;5.20;;
21175;SDS011;10746;50.178;8.186;2022-11-15T05:20:09;5.80;;;4.57;;
21175;SDS011;10746;50.178;8.186;2022-11-15T05:22:36;6.33;;;5.20;;
21175;SDS011;10746;50.178;8.186;2022-11-15T05:25:05;6.00;;;4.80;;
21175;SDS011;10746;50.178;8.186;2022-11-15T05:27:33;5.03;;;4.50;;
21175;SDS011;10746;50.178;8.186;2022-11-15T05:30:00;6.03;;;4.80;;
21175;SDS011;10746;50.178;8.186;2022-11-15T05:32:27;5.50;;;4.57;;
21175;SDS011;10746;50.178;8.186;2022-11-15T05:34:54;7.57;;;4.43;;
21175;SDS011;10746;50.178;8.186;2022-11-15T05:37:21;5.20;;;4.70;;
21175;SDS011;10746;50.178;8.186;2022-11-15T05:39:48;6.60;;;4.80;;
21175;SDS011;10746;50.178;8.186;2022-11-15T05:42:16;6.87;;;4.57;;
21175;SDS011;10746;50.178;8.186;2022-11-15T05:44:44;7.53;;;4.20;;
21175;SDS011;10746;50.178;8.186;2022-11-15T05:47:17;6.40;;;4.27;;
21175;SDS011;10746;50.178;8.186;2022-11-15T05:49:47;6.93;;;4.47;;
21175;SDS011;10746;50.178;8.186;2022-11-15T05:52:17;5.57;;;4.27;;
21175;SDS011;10746;50.178;8.186;2022-11-15T05:54:46;8.03;;;4.47;;
21175;SDS011;10746;50.178;8.186;2022-11-15T05:57:13;7.00;;;4.30;;
21175;SDS011;10746;50.178;8.186;2022-11-15T05:59:41;5.23;;;4.23;;
21175;SDS011;10746;50.178;8.186;2022-11-15T06:02:09;5.40;;;4.50;;
21175;SDS011;10746;50.178;8.186;2022-11-15T06:04:36;4.73;;;3.83;;
21175;SDS011;10746;50.178;8.186;2022-11-15T06:07:03;5.50;;;4.07;;
21175;SDS011;10746;50.178;8.186;2022-11-15T06:09:29;4.33;;;3.93;;
21175;SDS011;10746;50.178;8.186;2022-11-15T06:11:56;4.47;;;4.07;;
21175;SDS011;10746;50.178;8.186;2022-11-15T06:14:23;6.73;;;4.43;;
21175;SDS011;10746;50.178;8.186;2022-11-15T06:16:51;5.30;;;4.30;;
21175;SDS011;10746;50.178;8.186;2022-11-15T06:19:18;5.27;;;4.00;;
21175;SDS011;10746;50.178;8.186;2022-11-15T06:21:45;6.53;;;4.10;;
21175;SDS011;10746;50.178;8.186;2022-11-15T06:24:12;4.60;;;4.20;;
21175;SDS011;10746;50.178;8.186;2022-11-15T06:26:38;6.73;;;4.20;;
21175;SDS011;10746;50.178;8.186;2022-11-15T06:29:05;6.77;;;4.37;;
21175;SDS011;10746;50.178;8.186;2022-11-15T06:31:32;6.17;;;4.10;;
21175;SDS011;10746;50.178;8.186;2022-11-15T06:34:01;4.63;;;4.07;;
21175;SDS011;10746;50.178;8.186;2022-11-15T06:36:28;4.77;;;4.27;;
21175;SDS011;10746;50.178;8.186;2022-11-15T06:38:54;4.63;;;3.72;;
21175;SDS011;10746;50.178;8.186;2022-11-15T06:41:22;5.37;;;4.30;;
21175;SDS011;10746;50.178;8.186;2022-11-15T06:43:49;5.67;;;4.67;;
21175;SDS011;10746;50.178;8.186;2022-11-15T06:46:15;8.07;;;4.43;;
21175;SDS011;10746;50.178;8.186;2022-11-15T06:48:42;4.67;;;4.20;;
21175;SDS011;10746;50.178;8.186;2022-11-15T06:51:10;6.37;;;4.70;;
21175;SDS011;10746;50.178;8.186;2022-11-15T06:53:37;5.30;;;4.27;;
21175;SDS011;10746;50.178;8.186;2022-11-15T06:56:04;5.77;;;4.40;;
21175;SDS011;10746;50.178;8.186;2022-11-15T06:58:32;6.03;;;4.90;;
21175;SDS011;10746;50.178;8.186;2022-11-15T07:01:00;5.40;;;4.90;;
21175;SDS011;10746;50.178;8.186;2022-11-15T07:03:27;6.10;;;4.53;;
21175;SDS011;10746;50.178;8.186;2022-11-15T07:05:54;5.50;;;4.40;;
21175;SDS011;10746;50.178;8.186;2022-11-15T07:08:24;5.20;;;4.70;;
21175;SDS011;10746;50.178;8.186;2022-11-15T07:10:53;7.13;;;4.90;;
21175;SDS011;10746;50.178;8.186;2022-11-15T07:13:23;5.80;;;4.70;;
21175;SDS011;10746;50.178;8.186;2022-11-15T07:15:50;6.07;;;4.60;;
21175;SDS011;10746;50.178;8.186;2022-11-15T07:18:17;6.57;;;4.70;;
21175;SDS011;10746;50.178;8.186;2022-11-15T07:20:44;6.68;;;4.95;;
21175;SDS011;10746;50.178;8.186;2022-11-15T07:23:11;6.00;;;4.60;;
21175;SDS011;10746;50.178;8.186;2022-11-15T07:25:39;7.15;;;4.85;;
21175;SDS011;10746;50.178;8.186;2022-11-15T07:28:05;7.37;;;5.20;;
21175;SDS011;10746;50.178;8.186;2022-11-15T07:30:32;7.13;;;4.30;;
21175;SDS011;10746;50.178;8.186;2022-11-15T07:32:59;5.97;;;4.90;;
21175;SDS011;10746;50.178;8.186;2022-11-15T07:35:26;5.65;;;4.88;;
21175;SDS011;10746;50.178;8.186;2022-11-15T07:37:54;7.27;;;4.70;;
21175;SDS011;10746;50.178;8.186;2022-11-15T07:40:22;5.13;;;4.40;;
21175;SDS011;10746;50.178;8.186;2022-11-15T07:42:51;6.37;;;4.63;;
21175;SDS011;10746;50.178;8.186;2022-11-15T07:45:22;5.65;;;4.68;;
21175;SDS011;10746;50.178;8.186;2022-11-15T07:47:50;5.17;;;4.20;;
21175;SDS011;10746;50.178;8.186;2022-11-15T07:50:17;10.13;;;4.73;;
21175;SDS011;10746;50.178;8.186;2022-11-15T07:52:45;5.53;;;4.80;;
21175;SDS011;10746;50.178;8.186;2022-11-15T07:55:12;5.00;;;4.50;;
21175;SDS011;10746;50.178;8.186;2022-11-15T07:57:39;7.82;;;4.85;;
21175;SDS011;10746;50.178;8.186;2022-11-15T08:00:08;5.20;;;4.70;;
21175;SDS011;10746;50.178;8.186;2022-11-15T08:02:35;7.60;;;4.97;;
21175;SDS011;10746;50.178;8.186;2022-11-15T08:05:02;4.53;;;4.13;;
21175;SDS011;10746;50.178;8.186;2022-11-15T08:07:30;6.22;;;4.32;;
21175;SDS011;10746;50.178;8.186;2022-11-15T08:09:57;6.43;;;4.30;;
21175;SDS011;10746;50.178;8.186;2022-11-15T08:12:26;4.07;;;3.67;;
21175;SDS011;10746;50.178;8.186;2022-11-15T08:14:53;4.33;;;3.80;;
21175;SDS011;10746;50.178;8.186;2022-11-15T08:17:21;3.37;;;3.07;;
21175;SDS011;10746;50.178;8.186;2022-11-15T08:19:48;4.17;;;3.73;;
21175;SDS011;10746;50.178;8.186;2022-11-15T08:22:15;5.22;;;3.80;;
21175;SDS011;10746;50.178;8.186;2022-11-15T08:24:42;4.18;;;3.75;;
21175;SDS011;10746;50.178;8.186;2022-11-15T08:27:09;4.77;;;3.70;;
21175;SDS011;10746;50.178;8.186;2022-11-15T08:29:41;6.18;;;3.85;;
21175;SDS011;10746;50.178;8.186;2022-11-15T08:32:08;4.43;;;3.70;;
21175;SDS011;10746;50.178;8.186;2022-11-15T08:34:37;5.47;;;3.87;;
21175;SDS011;10746;50.178;8.186;2022-11-15T08:37:04;4.33;;;3.93;;
21175;SDS011;10746;50.178;8.186;2022-11-15T08:39:31;4.93;;;3.90;;
21175;SDS011;10746;50.178;8.186;2022-11-15T08:41:58;6.85;;;4.07;;
21175;SDS011;10746;50.178;8.186;2022-11-15T08:44:25;5.22;;;3.90;;
21175;SDS011;10746;50.178;8.186;2022-11-15T08:46:51;4.70;;;4.28;;
21175;SDS011;10746;50.178;8.186;2022-11-15T08:49:18;5.82;;;4.00;;
21175;SDS011;10746;50.178;8.186;2022-11-15T08:51:46;4.50;;;4.10;;
21175;SDS011;10746;50.178;8.186;2022-11-15T08:54:13;5.60;;;3.85;;
21175;SDS011;10746;50.178;8.186;2022-11-15T08:56:40;4.45;;;3.53;;
21175;SDS011;10746;50.178;8.186;2022-11-15T08:59:07;4.60;;;3.20;;
21175;SDS011;10746;50.178;8.186;2022-11-15T09:01:33;4.30;;;3.28;;
21175;SDS011;10746;50.178;8.186;2022-11-15T09:04:00;3.70;;;3.15;;
21175;SDS011;10746;50.178;8.186;2022-11-15T09:06:28;4.47;;;3.35;;
21175;SDS011;10746;50.178;8.186;2022-11-15T09:08:57;4.82;;;3.58;;
21175;SDS011;10746;50.178;8.186;2022-11-15T09:11:23;4.03;;;3.50;;
21175;SDS011;10746;50.178;8.186;2022-11-15T09:13:51;6.32;;;3.13;;
21175;SDS011;10746;50.178;8.186;2022-11-15T09:16:18;5.13;;;3.42;;
21175;SDS011;10746;50.178;8.186;2022-11-15T09:18:45;6.15;;;3.63;;
21175;SDS011;10746;50.178;8.186;2022-11-15T09:21:12;3.60;;;3.30;;
21175;SDS011;10746;50.178;8.186;2022-11-15T09:23:39;4.38;;;3.47;;
21175;SDS011;10746;50.178;8.186;2022-11-15T09:26:07;4.68;;;3.35;;
21175;SDS011;10746;50.178;8.186;2022-11-15T09:28:34;6.07;;;4.20;;
21175;SDS011;10746;50.178;8.186;2022-11-15T09:31:03;3.70;;;3.35;;
21175;SDS011;10746;50.178;8.186;2022-11-15T09:33:31;3.60;;;3.30;;
21175;SDS011;10746;50.178;8.186;2022-11-15T09:36:02;4.65;;;3.65;;
21175;SDS011;10746;50.178;8.186;2022-11-15T09:38:30;4.03;;;3.70;;
21175;SDS011;10746;50.178;8.186;2022-11-15T09:41:05;4.18;;;3.67;;
21175;SDS011;10746;50.178;8.186;2022-11-15T09:43:53;3.72;;;3.42;;
21175;SDS011;10746;50.178;8.186;2022-11-15T09:46:32;3.45;;;3.15;;
21175;SDS011;10746;50.178;8.186;2022-11-15T09:49:08;4.65;;;3.40;;
21175;SDS011;10746;50.178;8.186;2022-11-15T09:51:38;3.80;;;3.50;;
21175;SDS011;10746;50.178;8.186;2022-11-15T09:54:13;4.03;;;3.63;;
21175;SDS011;10746;50.178;8.186;2022-11-15T09:56:48;3.63;;;3.38;;
21175;SDS011;10746;50.178;8.186;2022-11-15T10:02:12;3.38;;;3.08;;
21175;SDS011;10746;50.178;8.186;2022-11-15T10:04:47;3.30;;;3.00;;
21175;SDS011;10746;50.178;8.186;2022-11-15T10:07:14;3.40;;;3.10;;
21175;SDS011;10746;50.178;8.186;2022-11-15T10:09:45;3.47;;;3.17;;
21175;SDS011;10746;50.178;8.186;2022-11-15T10:12:18;6.15;;;3.08;;
21175;SDS011;10746;50.178;8.186;2022-11-15T10:14:45;3.42;;;3.03;;
21175;SDS011;10746;50.178;8.186;2022-11-15T10:17:24;3.78;;;3.00;;
21175;SDS011;10746;50.178;8.186;2022-11-15T10:20:01;4.13;;;3.33;;
21175;SDS011;10746;50.178;8.186;2022-11-15T10:22:35;4.03;;;3.15;;
21175;SDS011;10746;50.178;8.186;2022-11-15T10:25:10;3.00;;;2.80;;
21175;SDS011;10746;50.178;8.186;2022-11-15T10:27:47;3.90;;;3.50;;
21175;SDS011;10746;50.178;8.186;2022-11-15T10:30:19;3.47;;;3.17;;
21175;SDS011;10746;50.178;8.186;2022-11-15T10:32:46;3.13;;;2.83;;
21175;SDS011;10746;50.178;8.186;2022-11-15T10:35:24;2.97;;;2.75;;
21175;SDS011;10746;50.178;8.186;2022-11-15T10:38:02;3.90;;;3.00;;
21175;SDS011;10746;50.178;8.186;2022-11-15T10:40:32;3.05;;;2.78;;
21175;SDS011;10746;50.178;8.186;2022-11-15T10:43:05;3.78;;;2.63;;
21175;SDS011;10746;50.178;8.186;2022-11-15T10:45:39;3.30;;;3.00;;
21175;SDS011;10746;50.178;8.186;2022-11-15T10:48:19;4.57;;;2.70;;
21175;SDS011;10746;50.178;8.186;2022-11-15T10:50:48;2.72;;;2.47;;
21175;SDS011;10746;50.178;8.186;2022-11-15T10:53:18;4.40;;;2.88;;
21175;SDS011;10746;50.178;8.186;2022-11-15T10:55:52;3.15;;;2.50;;
21175;SDS011;10746;50.178;8.186;2022-11-15T10:58:26;2.90;;;2.63;;
21175;SDS011;10746;50.178;8.186;2022-11-15T11:01:11;3.45;;;2.72;;
21175;SDS011;10746;50.178;8.186;2022-11-15T11:03:40;3.25;;;3.00;;
21175;SDS011;10746;50.178;8.186;2022-11-15T11:06:10;4.28;;;2.58;;
21175;SDS011;10746;50.178;8.186;2022-11-15T11:08:38;2.90;;;2.60;;
21175;SDS011;10746;50.178;8.186;2022-11-15T11:11:06;3.50;;;2.83;;
21175;SDS011;10746;50.178;8.186;2022-11-15T11:13:36;5.10;;;2.97;;
21175;SDS011;10746;50.178;8.186;2022-11-15T11:16:14;2.55;;;2.25;;
21175;SDS011;10746;50.178;8.186;2022-11-15T11:19:05;2.90;;;2.60;;
21175;SDS011;10746;50.178;8.186;2022-11-15T11:21:44;3.63;;;2.92;;
21175;SDS011;10746;50.178;8.186;2022-11-15T11:24:18;4.30;;;2.90;;
21175;SDS011;10746;50.178;8.186;2022-11-15T11:26:55;3.00;;;2.45;;
21175;SDS011;10746;50.178;8.186;2022-11-15T11:29:33;4.75;;;2.65;;
21175;SDS011;10746;50.178;8.186;2022-11-15T11:32:10;3.45;;;3.03;;
21175;SDS011;10746;50.178;8.186;2022-11-15T11:34:58;3.10;;;2.50;;
21175;SDS011;10746;50.178;8.186;2022-11-15T11:37:35;3.17;;;2.80;;
21175;SDS011;10746;50.178;8.186;2022-11-15T11:40:10;2.88;;;2.67;;
21175;SDS011;10746;50.178;8.186;2022-11-15T11:42:52;3.40;;;2.85;;
21175;SDS011;10746;50.178;8.186;2022-11-15T11:45:27;3.30;;;3.00;;
21175;SDS011;10746;50.178;8.186;2022-11-15T11:48:12;4.53;;;3.00;;
21175;SDS011;10746;50.178;8.186;2022-11-15T11:50:40;3.22;;;2.92;;
21175;SDS011;10746;50.178;8.186;2022-11-15T11:53:11;4.85;;;3.10;;
21175;SDS011;10746;50.178;8.186;2022-11-15T11:55:42;3.55;;;3.20;;
21175;SDS011;10746;50.178;8.186;2022-11-15T11:58:12;4.22;;;3.83;;
21175;SDS011;10746;50.178;8.186;2022-11-15T12:00:45;5.30;;;4.53;;
21175;SDS011;10746;50.178;8.186;2022-11-15T12:03:18;7.07;;;5.07;;
21175;SDS011;10746;50.178;8.186;2022-11-15T12:05:53;8.98;;;5.70;;
21175;SDS011;10746;50.178;8.186;2022-11-15T12:08:25;6.53;;;4.70;;
21175;SDS011;10746;50.178;8.186;2022-11-15T12:10:58;5.68;;;5.10;;
21175;SDS011;10746;50.178;8.186;2022-11-15T12:13:31;6.72;;;4.72;;
21175;SDS011;10746;50.178;8.186;2022-11-15T12:16:04;7.40;;;5.03;;
21175;SDS011;10746;50.178;8.186;2022-11-15T12:18:36;6.25;;;4.70;;
21175;SDS011;10746;50.178;8.186;2022-11-15T12:21:05;4.93;;;4.43;;
21175;SDS011;10746;50.178;8.186;2022-11-15T12:23:41;7.85;;;3.88;;
21175;SDS011;10746;50.178;8.186;2022-11-15T12:26:15;8.95;;;4.55;;
21175;SDS011;10746;50.178;8.186;2022-11-15T12:28:46;5.00;;;4.10;;
21175;SDS011;10746;50.178;8.186;2022-11-15T12:31:16;5.40;;;4.35;;
21175;SDS011;10746;50.178;8.186;2022-11-15T12:33:49;6.60;;;4.20;;
21175;SDS011;10746;50.178;8.186;2022-11-15T12:36:32;6.03;;;4.47;;
21175;SDS011;10746;50.178;8.186;2022-11-15T12:39:03;5.15;;;4.65;;
21175;SDS011;10746;50.178;8.186;2022-11-15T12:41:31;6.75;;;4.75;;
21175;SDS011;10746;50.178;8.186;2022-11-15T12:43:59;7.13;;;5.43;;
21175;SDS011;10746;50.178;8.186;2022-11-15T12:49:48;9.05;;;6.43;;
21175;SDS011;10746;50.178;8.186;2022-11-15T12:52:15;7.15;;;5.90;;
21175;SDS011;10746;50.178;8.186;2022-11-15T12:54:56;6.45;;;5.78;;
21175;SDS011;10746;50.178;8.186;2022-11-15T12:57:29;7.22;;;5.80;;
21175;SDS011;10746;50.178;8.186;2022-11-15T12:59:58;5.90;;;5.30;;
21175;SDS011;10746;50.178;8.186;2022-11-15T13:02:30;7.95;;;5.50;;
21175;SDS011;10746;50.178;8.186;2022-11-15T13:08:00;6.70;;;5.50;;
21175;SDS011;10746;50.178;8.186;2022-11-15T13:10:30;7.50;;;5.50;;
21175;SDS011;10746;50.178;8.186;2022-11-15T13:13:00;6.40;;;5.28;;
21175;SDS011;10746;50.178;8.186;2022-11-15T13:18:30;6.40;;;4.65;;
21175;SDS011;10746;50.178;8.186;2022-11-15T13:21:16;7.38;;;4.68;;
21175;SDS011;10746;50.178;8.186;2022-11-15T13:24:03;4.53;;;4.00;;
21175;SDS011;10746;50.178;8.186;2022-11-15T13:26:30;5.45;;;4.00;;
21175;SDS011;10746;50.178;8.186;2022-11-15T13:28:57;6.45;;;4.10;;
21175;SDS011;10746;50.178;8.186;2022-11-15T13:31:27;4.63;;;3.58;;
21175;SDS011;10746;50.178;8.186;2022-11-15T13:33:59;5.38;;;3.85;;
21175;SDS011;10746;50.178;8.186;2022-11-15T13:36:28;5.20;;;3.78;;
21175;SDS011;10746;50.178;8.186;2022-11-15T13:38:59;5.22;;;4.10;;
21175;SDS011;10746;50.178;8.186;2022-11-15T13:41:29;5.03;;;4.20;;
21175;SDS011;10746;50.178;8.186;2022-11-15T13:43:58;6.35;;;4.18;;
21175;SDS011;10746;50.178;8.186;2022-11-15T13:46:26;5.00;;;4.40;;
21175;SDS011;10746;50.178;8.186;2022-11-15T13:48:57;8.40;;;4.68;;
21175;SDS011;10746;50.178;8.186;2022-11-15T13:51:29;6.43;;;4.90;;
21175;SDS011;10746;50.178;8.186;2022-11-15T13:54:01;5.60;;;4.43;;
21175;SDS011;10746;50.178;8.186;2022-11-15T13:56:33;6.13;;;4.70;;
21175;SDS011;10746;50.178;8.186;2022-11-15T13:59:07;5.03;;;4.57;;
21175;SDS011;10746;50.178;8.186;2022-11-15T14:01:35;4.97;;;4.45;;
21175;SDS011;10746;50.178;8.186;2022-11-15T14:04:03;5.35;;;4.18;;
21175;SDS011;10746;50.178;8.186;2022-11-15T14:06:30;5.68;;;4.45;;
21175;SDS011;10746;50.178;8.186;2022-11-15T14:11:51;5.43;;;4.93;;
21175;SDS011;10746;50.178;8.186;2022-11-15T14:14:20;5.78;;;4.53;;
21175;SDS011;10746;50.178;8.186;2022-11-15T14:16:49;5.38;;;4.85;;
21175;SDS011;10746;50.178;8.186;2022-11-15T14:19:34;5.47;;;4.85;;
21175;SDS011;10746;50.178;8.186;2022-11-15T14:22:13;7.78;;;5.50;;
21175;SDS011;10746;50.178;8.186;2022-11-15T14:24:43;6.28;;;5.28;;
21175;SDS011;10746;50.178;8.186;2022-11-15T14:27:17;8.63;;;5.63;;
21175;SDS011;10746;50.178;8.186;2022-11-15T14:29:46;6.13;;;5.53;;
21175;SDS011;10746;50.178;8.186;2022-11-15T14:32:14;6.38;;;5.70;;
21175;SDS011;10746;50.178;8.186;2022-11-15T14:34:43;6.68;;;5.38;;
21175;SDS011;10746;50.178;8.186;2022-11-15T14:37:16;5.77;;;5.00;;
21175;SDS011;10746;50.178;8.186;2022-11-15T14:39:46;5.83;;;5.23;;
21175;SDS011;10746;50.178;8.186;2022-11-15T14:42:12;6.63;;;5.65;;
21175;SDS011;10746;50.178;8.186;2022-11-15T14:44:39;6.68;;;5.68;;
21175;SDS011;10746;50.178;8.186;2022-11-15T14:47:06;8.18;;;5.88;;
21175;SDS011;10746;50.178;8.186;2022-11-15T14:49:33;7.93;;;6.10;;
21175;SDS011;10746;50.178;8.186;2022-11-15T14:52:01;6.60;;;5.97;;
21175;SDS011;10746;50.178;8.186;2022-11-15T14:54:28;6.63;;;5.93;;
21175;SDS011;10746;50.178;8.186;2022-11-15T14:56:55;7.20;;;5.73;;
21175;SDS011;10746;50.178;8.186;2022-11-15T14:59:21;6.40;;;5.57;;
21175;SDS011;10746;50.178;8.186;2022-11-15T15:01:48;6.23;;;5.50;;
21175;SDS011;10746;50.178;8.186;2022-11-15T15:04:15;6.05;;;5.32;;
21175;SDS011;10746;50.178;8.186;2022-11-15T15:06:42;6.00;;;5.50;;
21175;SDS011;10746;50.178;8.186;2022-11-15T15:09:10;6.67;;;5.47;;
21175;SDS011;10746;50.178;8.186;2022-11-15T15:11:36;8.63;;;5.50;;
21175;SDS011;10746;50.178;8.186;2022-11-15T15:14:03;6.47;;;5.47;;
21175;SDS011;10746;50.178;8.186;2022-11-15T15:16:30;6.10;;;5.38;;
21175;SDS011;10746;50.178;8.186;2022-11-15T15:18:57;5.93;;;4.57;;
21175;SDS011;10746;50.178;8.186;2022-11-15T15:21:24;5.22;;;4.72;;
21175;SDS011;10746;50.178;8.186;2022-11-15T15:23:52;6.72;;;4.60;;